Terminal Aerodrome Forecast
Issued by NWS Wilmington, OH

Current Version | Previous Version | Text Only | Print | Product List | Glossary Off
Versions: 1 2 3 4 5 6 7 8 9 10 11 12 13 14 15 16 17 18 19 20 21 22

000
FTUS41 KILN 201600 AAA
TAFCVG
TAF AMD
KCVG 201605Z 2016/2118 26012G20KT P6SM SCT035
     FM202000 26013G22KT P6SM BKN040
     FM202200 26011G20KT P6SM OVC035
     FM210000 27009KT P6SM OVC035
     FM210900 30006KT P6SM SKC=

USA.gov is the U.S. government's official web portal to all federal, state and local government web resources and services.